sensor_id;sensor_type;location;lat;lon;timestamp;P1;durP1;ratioP1;P2;durP2;ratioP2
13173;SDS011;6652;48.802;9.190;2023-05-28T00:00:53;12.80;;;5.55;;
13173;SDS011;6652;48.802;9.190;2023-05-28T00:03:21;16.58;;;6.25;;
13173;SDS011;6652;48.802;9.190;2023-05-28T00:05:49;18.88;;;5.95;;
13173;SDS011;6652;48.802;9.190;2023-05-28T00:08:17;17.67;;;5.72;;
13173;SDS011;6652;48.802;9.190;2023-05-28T00:10:44;16.55;;;5.45;;
13173;SDS011;6652;48.802;9.190;2023-05-28T00:13:10;12.88;;;5.53;;
13173;SDS011;6652;48.802;9.190;2023-05-28T00:15:37;15.02;;;5.88;;
13173;SDS011;6652;48.802;9.190;2023-05-28T00:18:04;14.20;;;5.25;;
13173;SDS011;6652;48.802;9.190;2023-05-28T00:20:33;18.48;;;6.15;;
13173;SDS011;6652;48.802;9.190;2023-05-28T00:23:00;19.85;;;6.28;;
13173;SDS011;6652;48.802;9.190;2023-05-28T00:25:29;16.13;;;5.65;;
13173;SDS011;6652;48.802;9.190;2023-05-28T00:27:56;16.25;;;5.80;;
13173;SDS011;6652;48.802;9.190;2023-05-28T00:30:22;17.10;;;5.60;;
13173;SDS011;6652;48.802;9.190;2023-05-28T00:32:50;13.98;;;5.45;;
13173;SDS011;6652;48.802;9.190;2023-05-28T00:35:17;15.30;;;5.22;;
13173;SDS011;6652;48.802;9.190;2023-05-28T00:37:43;20.38;;;6.40;;
13173;SDS011;6652;48.802;9.190;2023-05-28T00:40:10;19.02;;;6.25;;
13173;SDS011;6652;48.802;9.190;2023-05-28T00:42:42;23.20;;;6.30;;
13173;SDS011;6652;48.802;9.190;2023-05-28T00:45:09;21.33;;;6.82;;
13173;SDS011;6652;48.802;9.190;2023-05-28T00:47:37;19.80;;;5.97;;
13173;SDS011;6652;48.802;9.190;2023-05-28T00:50:05;30.30;;;6.20;;
13173;SDS011;6652;48.802;9.190;2023-05-28T00:52:33;20.50;;;5.30;;
13173;SDS011;6652;48.802;9.190;2023-05-28T00:55:00;14.93;;;5.75;;
13173;SDS011;6652;48.802;9.190;2023-05-28T00:57:27;11.52;;;5.20;;
13173;SDS011;6652;48.802;9.190;2023-05-28T00:59:56;22.15;;;5.55;;
13173;SDS011;6652;48.802;9.190;2023-05-28T01:02:29;15.55;;;5.47;;
13173;SDS011;6652;48.802;9.190;2023-05-28T01:04:56;21.50;;;5.88;;
13173;SDS011;6652;48.802;9.190;2023-05-28T01:07:22;18.08;;;5.72;;
13173;SDS011;6652;48.802;9.190;2023-05-28T01:09:50;10.65;;;5.05;;
13173;SDS011;6652;48.802;9.190;2023-05-28T01:12:16;15.55;;;5.63;;
13173;SDS011;6652;48.802;9.190;2023-05-28T01:14:45;14.70;;;5.43;;
13173;SDS011;6652;48.802;9.190;2023-05-28T01:17:14;14.15;;;5.35;;
13173;SDS011;6652;48.802;9.190;2023-05-28T01:19:41;16.70;;;5.13;;
13173;SDS011;6652;48.802;9.190;2023-05-28T01:22:12;16.15;;;5.72;;
13173;SDS011;6652;48.802;9.190;2023-05-28T01:24:47;14.20;;;5.40;;
13173;SDS011;6652;48.802;9.190;2023-05-28T01:27:14;15.20;;;5.55;;
13173;SDS011;6652;48.802;9.190;2023-05-28T01:29:41;19.77;;;5.05;;
13173;SDS011;6652;48.802;9.190;2023-05-28T01:32:08;12.88;;;5.40;;
13173;SDS011;6652;48.802;9.190;2023-05-28T01:34:35;15.20;;;6.20;;
13173;SDS011;6652;48.802;9.190;2023-05-28T01:37:03;15.40;;;6.20;;
13173;SDS011;6652;48.802;9.190;2023-05-28T01:39:35;14.30;;;5.80;;
13173;SDS011;6652;48.802;9.190;2023-05-28T01:42:07;15.10;;;5.28;;
13173;SDS011;6652;48.802;9.190;2023-05-28T01:44:35;14.43;;;5.97;;
13173;SDS011;6652;48.802;9.190;2023-05-28T01:47:03;18.58;;;6.38;;
13173;SDS011;6652;48.802;9.190;2023-05-28T01:49:31;20.38;;;6.70;;
13173;SDS011;6652;48.802;9.190;2023-05-28T01:51:58;23.67;;;5.63;;
13173;SDS011;6652;48.802;9.190;2023-05-28T01:54:24;21.45;;;6.55;;
13173;SDS011;6652;48.802;9.190;2023-05-28T01:56:51;18.85;;;6.28;;
13173;SDS011;6652;48.802;9.190;2023-05-28T01:59:19;18.73;;;6.38;;
13173;SDS011;6652;48.802;9.190;2023-05-28T02:01:46;16.23;;;5.88;;
13173;SDS011;6652;48.802;9.190;2023-05-28T02:04:13;19.02;;;5.97;;
13173;SDS011;6652;48.802;9.190;2023-05-28T02:06:44;16.45;;;5.80;;
13173;SDS011;6652;48.802;9.190;2023-05-28T02:09:11;14.18;;;5.72;;
13173;SDS011;6652;48.802;9.190;2023-05-28T02:11:38;15.38;;;5.07;;
13173;SDS011;6652;48.802;9.190;2023-05-28T02:14:05;12.65;;;5.53;;
13173;SDS011;6652;48.802;9.190;2023-05-28T02:16:33;17.30;;;5.70;;
13173;SDS011;6652;48.802;9.190;2023-05-28T02:19:00;18.20;;;5.97;;
13173;SDS011;6652;48.802;9.190;2023-05-28T02:21:28;13.30;;;5.40;;
13173;SDS011;6652;48.802;9.190;2023-05-28T02:23:55;21.33;;;6.00;;
13173;SDS011;6652;48.802;9.190;2023-05-28T02:26:22;14.90;;;5.53;;
13173;SDS011;6652;48.802;9.190;2023-05-28T02:28:50;19.77;;;5.72;;
13173;SDS011;6652;48.802;9.190;2023-05-28T02:31:17;15.18;;;5.78;;
13173;SDS011;6652;48.802;9.190;2023-05-28T02:33:45;14.15;;;5.28;;
13173;SDS011;6652;48.802;9.190;2023-05-28T02:36:12;10.70;;;4.90;;
13173;SDS011;6652;48.802;9.190;2023-05-28T02:38:40;12.07;;;5.43;;
13173;SDS011;6652;48.802;9.190;2023-05-28T02:41:07;16.65;;;5.43;;
13173;SDS011;6652;48.802;9.190;2023-05-28T02:43:35;17.42;;;5.78;;
13173;SDS011;6652;48.802;9.190;2023-05-28T02:46:02;14.48;;;5.72;;
13173;SDS011;6652;48.802;9.190;2023-05-28T02:48:29;17.08;;;5.75;;
13173;SDS011;6652;48.802;9.190;2023-05-28T02:50:57;17.52;;;5.82;;
13173;SDS011;6652;48.802;9.190;2023-05-28T02:53:24;16.92;;;7.15;;
13173;SDS011;6652;48.802;9.190;2023-05-28T02:55:55;17.35;;;5.53;;
13173;SDS011;6652;48.802;9.190;2023-05-28T02:58:22;24.08;;;5.90;;
13173;SDS011;6652;48.802;9.190;2023-05-28T03:00:49;15.18;;;5.85;;
13173;SDS011;6652;48.802;9.190;2023-05-28T03:03:16;19.45;;;5.93;;
13173;SDS011;6652;48.802;9.190;2023-05-28T03:05:43;14.45;;;5.63;;
13173;SDS011;6652;48.802;9.190;2023-05-28T03:08:12;13.90;;;5.88;;
13173;SDS011;6652;48.802;9.190;2023-05-28T03:10:39;18.35;;;6.07;;
13173;SDS011;6652;48.802;9.190;2023-05-28T03:13:05;16.73;;;6.25;;
13173;SDS011;6652;48.802;9.190;2023-05-28T03:15:32;24.05;;;6.63;;
13173;SDS011;6652;48.802;9.190;2023-05-28T03:18:00;17.63;;;6.18;;
13173;SDS011;6652;48.802;9.190;2023-05-28T03:20:27;15.90;;;6.60;;
13173;SDS011;6652;48.802;9.190;2023-05-28T03:22:54;14.13;;;6.25;;
13173;SDS011;6652;48.802;9.190;2023-05-28T03:25:23;17.65;;;6.07;;
13173;SDS011;6652;48.802;9.190;2023-05-28T03:27:50;18.92;;;6.82;;
13173;SDS011;6652;48.802;9.190;2023-05-28T03:30:17;20.63;;;6.57;;
13173;SDS011;6652;48.802;9.190;2023-05-28T03:32:44;17.00;;;5.38;;
13173;SDS011;6652;48.802;9.190;2023-05-28T03:35:11;16.02;;;6.47;;
13173;SDS011;6652;48.802;9.190;2023-05-28T03:37:38;21.23;;;7.20;;
13173;SDS011;6652;48.802;9.190;2023-05-28T03:40:05;21.40;;;6.03;;
13173;SDS011;6652;48.802;9.190;2023-05-28T03:42:35;16.42;;;6.32;;
13173;SDS011;6652;48.802;9.190;2023-05-28T03:45:02;19.38;;;6.90;;
13173;SDS011;6652;48.802;9.190;2023-05-28T03:47:29;16.15;;;5.85;;
13173;SDS011;6652;48.802;9.190;2023-05-28T03:49:58;15.55;;;5.53;;
13173;SDS011;6652;48.802;9.190;2023-05-28T03:52:25;16.67;;;5.55;;
13173;SDS011;6652;48.802;9.190;2023-05-28T03:54:53;18.30;;;5.85;;
13173;SDS011;6652;48.802;9.190;2023-05-28T03:57:20;17.88;;;5.50;;
13173;SDS011;6652;48.802;9.190;2023-05-28T03:59:48;18.40;;;6.10;;
13173;SDS011;6652;48.802;9.190;2023-05-28T04:02:15;12.57;;;6.05;;
13173;SDS011;6652;48.802;9.190;2023-05-28T04:04:42;17.38;;;6.20;;
13173;SDS011;6652;48.802;9.190;2023-05-28T04:07:10;14.68;;;5.75;;
13173;SDS011;6652;48.802;9.190;2023-05-28T04:09:37;17.42;;;6.65;;
13173;SDS011;6652;48.802;9.190;2023-05-28T04:12:04;11.80;;;5.38;;
13173;SDS011;6652;48.802;9.190;2023-05-28T04:14:31;16.95;;;6.20;;
13173;SDS011;6652;48.802;9.190;2023-05-28T04:16:59;13.32;;;5.68;;
13173;SDS011;6652;48.802;9.190;2023-05-28T04:19:26;15.93;;;5.68;;
13173;SDS011;6652;48.802;9.190;2023-05-28T04:21:53;14.23;;;6.25;;
13173;SDS011;6652;48.802;9.190;2023-05-28T04:24:20;16.23;;;5.55;;
13173;SDS011;6652;48.802;9.190;2023-05-28T04:26:47;14.18;;;5.60;;
13173;SDS011;6652;48.802;9.190;2023-05-28T04:29:13;16.02;;;5.32;;
13173;SDS011;6652;48.802;9.190;2023-05-28T04:31:41;10.98;;;5.40;;
13173;SDS011;6652;48.802;9.190;2023-05-28T04:34:10;13.93;;;5.80;;
13173;SDS011;6652;48.802;9.190;2023-05-28T04:36:37;17.80;;;5.38;;
13173;SDS011;6652;48.802;9.190;2023-05-28T04:39:03;15.18;;;5.45;;
13173;SDS011;6652;48.802;9.190;2023-05-28T04:41:30;10.35;;;5.85;;
13173;SDS011;6652;48.802;9.190;2023-05-28T04:43:57;16.02;;;5.63;;
13173;SDS011;6652;48.802;9.190;2023-05-28T04:46:24;12.73;;;5.82;;
13173;SDS011;6652;48.802;9.190;2023-05-28T04:48:54;12.55;;;5.63;;
13173;SDS011;6652;48.802;9.190;2023-05-28T04:51:24;14.50;;;5.65;;
13173;SDS011;6652;48.802;9.190;2023-05-28T04:53:50;12.90;;;5.57;;
13173;SDS011;6652;48.802;9.190;2023-05-28T04:56:17;13.38;;;5.25;;
13173;SDS011;6652;48.802;9.190;2023-05-28T04:58:45;16.08;;;6.38;;
13173;SDS011;6652;48.802;9.190;2023-05-28T05:01:11;15.20;;;6.60;;
13173;SDS011;6652;48.802;9.190;2023-05-28T05:03:39;13.68;;;5.75;;
13173;SDS011;6652;48.802;9.190;2023-05-28T05:06:06;13.90;;;6.28;;
13173;SDS011;6652;48.802;9.190;2023-05-28T05:08:34;14.90;;;6.15;;
13173;SDS011;6652;48.802;9.190;2023-05-28T05:11:01;14.35;;;5.80;;
13173;SDS011;6652;48.802;9.190;2023-05-28T05:13:29;13.15;;;5.80;;
13173;SDS011;6652;48.802;9.190;2023-05-28T05:15:56;15.27;;;6.15;;
13173;SDS011;6652;48.802;9.190;2023-05-28T05:18:23;15.40;;;5.07;;
13173;SDS011;6652;48.802;9.190;2023-05-28T05:20:50;17.27;;;5.82;;
13173;SDS011;6652;48.802;9.190;2023-05-28T05:23:16;12.10;;;5.60;;
13173;SDS011;6652;48.802;9.190;2023-05-28T05:25:44;16.05;;;5.88;;
13173;SDS011;6652;48.802;9.190;2023-05-28T05:28:11;14.35;;;6.15;;
13173;SDS011;6652;48.802;9.190;2023-05-28T05:30:38;10.75;;;5.75;;
13173;SDS011;6652;48.802;9.190;2023-05-28T05:33:05;15.43;;;5.93;;
13173;SDS011;6652;48.802;9.190;2023-05-28T05:35:32;16.48;;;6.68;;
13173;SDS011;6652;48.802;9.190;2023-05-28T05:37:59;11.52;;;6.05;;
13173;SDS011;6652;48.802;9.190;2023-05-28T05:40:26;16.65;;;6.55;;
13173;SDS011;6652;48.802;9.190;2023-05-28T05:42:54;12.50;;;6.45;;
13173;SDS011;6652;48.802;9.190;2023-05-28T05:45:21;15.88;;;6.28;;
13173;SDS011;6652;48.802;9.190;2023-05-28T05:47:48;14.35;;;6.60;;
13173;SDS011;6652;48.802;9.190;2023-05-28T05:50:15;16.33;;;6.57;;
13173;SDS011;6652;48.802;9.190;2023-05-28T05:52:41;12.25;;;6.85;;
13173;SDS011;6652;48.802;9.190;2023-05-28T05:55:08;20.15;;;6.80;;
13173;SDS011;6652;48.802;9.190;2023-05-28T05:57:35;13.80;;;6.07;;
13173;SDS011;6652;48.802;9.190;2023-05-28T06:00:04;13.82;;;6.75;;
13173;SDS011;6652;48.802;9.190;2023-05-28T06:02:33;17.02;;;6.63;;
13173;SDS011;6652;48.802;9.190;2023-05-28T06:05:01;13.93;;;6.78;;
13173;SDS011;6652;48.802;9.190;2023-05-28T06:07:29;13.23;;;6.70;;
13173;SDS011;6652;48.802;9.190;2023-05-28T06:09:56;13.05;;;5.40;;
13173;SDS011;6652;48.802;9.190;2023-05-28T06:12:23;12.32;;;6.05;;
13173;SDS011;6652;48.802;9.190;2023-05-28T06:14:50;19.55;;;5.97;;
13173;SDS011;6652;48.802;9.190;2023-05-28T06:17:18;12.55;;;5.97;;
13173;SDS011;6652;48.802;9.190;2023-05-28T06:19:45;13.65;;;5.75;;
13173;SDS011;6652;48.802;9.190;2023-05-28T06:22:14;10.05;;;5.07;;
13173;SDS011;6652;48.802;9.190;2023-05-28T06:24:41;12.70;;;6.07;;
13173;SDS011;6652;48.802;9.190;2023-05-28T06:27:07;15.20;;;6.07;;
13173;SDS011;6652;48.802;9.190;2023-05-28T06:29:35;13.13;;;5.93;;
13173;SDS011;6652;48.802;9.190;2023-05-28T06:32:02;12.32;;;5.63;;
13173;SDS011;6652;48.802;9.190;2023-05-28T06:34:30;12.85;;;6.03;;
13173;SDS011;6652;48.802;9.190;2023-05-28T06:36:57;12.57;;;5.63;;
13173;SDS011;6652;48.802;9.190;2023-05-28T06:39:24;15.32;;;6.00;;
13173;SDS011;6652;48.802;9.190;2023-05-28T06:41:51;14.50;;;5.88;;
13173;SDS011;6652;48.802;9.190;2023-05-28T06:44:18;12.00;;;5.60;;
13173;SDS011;6652;48.802;9.190;2023-05-28T06:46:45;16.52;;;5.43;;
13173;SDS011;6652;48.802;9.190;2023-05-28T06:49:12;15.52;;;6.15;;
13173;SDS011;6652;48.802;9.190;2023-05-28T06:51:40;16.70;;;5.45;;
13173;SDS011;6652;48.802;9.190;2023-05-28T06:54:07;14.05;;;5.57;;
13173;SDS011;6652;48.802;9.190;2023-05-28T06:56:33;12.75;;;5.45;;
13173;SDS011;6652;48.802;9.190;2023-05-28T06:59:00;16.40;;;5.90;;
13173;SDS011;6652;48.802;9.190;2023-05-28T07:01:27;11.00;;;5.18;;
13173;SDS011;6652;48.802;9.190;2023-05-28T07:03:54;12.25;;;5.35;;
13173;SDS011;6652;48.802;9.190;2023-05-28T07:06:21;13.48;;;4.80;;
13173;SDS011;6652;48.802;9.190;2023-05-28T07:08:49;11.05;;;5.57;;
13173;SDS011;6652;48.802;9.190;2023-05-28T07:11:16;12.48;;;5.15;;
13173;SDS011;6652;48.802;9.190;2023-05-28T07:13:43;10.82;;;5.15;;
13173;SDS011;6652;48.802;9.190;2023-05-28T07:16:11;13.50;;;5.10;;
13173;SDS011;6652;48.802;9.190;2023-05-28T07:18:38;10.50;;;5.10;;
13173;SDS011;6652;48.802;9.190;2023-05-28T07:21:05;12.20;;;5.00;;
13173;SDS011;6652;48.802;9.190;2023-05-28T07:23:32;10.30;;;5.20;;
13173;SDS011;6652;48.802;9.190;2023-05-28T07:26:00;11.80;;;4.93;;
13173;SDS011;6652;48.802;9.190;2023-05-28T07:28:27;15.77;;;4.68;;
13173;SDS011;6652;48.802;9.190;2023-05-28T07:30:53;10.38;;;4.72;;
13173;SDS011;6652;48.802;9.190;2023-05-28T07:33:21;10.55;;;4.90;;
13173;SDS011;6652;48.802;9.190;2023-05-28T07:35:48;10.52;;;5.03;;
13173;SDS011;6652;48.802;9.190;2023-05-28T07:38:15;8.70;;;4.82;;
13173;SDS011;6652;48.802;9.190;2023-05-28T07:40:41;12.43;;;4.90;;
13173;SDS011;6652;48.802;9.190;2023-05-28T07:43:10;12.10;;;5.05;;
13173;SDS011;6652;48.802;9.190;2023-05-28T07:45:36;13.40;;;5.60;;
13173;SDS011;6652;48.802;9.190;2023-05-28T07:48:03;11.35;;;5.07;;
13173;SDS011;6652;48.802;9.190;2023-05-28T07:50:30;15.45;;;5.20;;
13173;SDS011;6652;48.802;9.190;2023-05-28T07:52:57;14.90;;;5.15;;
13173;SDS011;6652;48.802;9.190;2023-05-28T07:55:23;12.43;;;5.18;;
13173;SDS011;6652;48.802;9.190;2023-05-28T07:57:50;12.35;;;4.85;;
13173;SDS011;6652;48.802;9.190;2023-05-28T08:00:19;14.98;;;5.25;;
13173;SDS011;6652;48.802;9.190;2023-05-28T08:02:45;9.82;;;4.93;;
13173;SDS011;6652;48.802;9.190;2023-05-28T08:05:12;10.07;;;4.90;;
13173;SDS011;6652;48.802;9.190;2023-05-28T08:07:39;10.18;;;4.60;;
13173;SDS011;6652;48.802;9.190;2023-05-28T08:10:07;12.80;;;4.60;;
13173;SDS011;6652;48.802;9.190;2023-05-28T08:12:33;11.52;;;4.45;;
13173;SDS011;6652;48.802;9.190;2023-05-28T08:15:00;16.55;;;5.97;;
13173;SDS011;6652;48.802;9.190;2023-05-28T08:17:30;14.38;;;5.05;;
13173;SDS011;6652;48.802;9.190;2023-05-28T08:19:57;12.35;;;5.00;;
13173;SDS011;6652;48.802;9.190;2023-05-28T08:22:24;14.52;;;5.10;;
13173;SDS011;6652;48.802;9.190;2023-05-28T08:24:51;10.52;;;4.80;;
13173;SDS011;6652;48.802;9.190;2023-05-28T08:27:18;10.85;;;5.05;;
13173;SDS011;6652;48.802;9.190;2023-05-28T08:29:46;11.32;;;4.72;;
13173;SDS011;6652;48.802;9.190;2023-05-28T08:32:12;14.80;;;5.00;;
13173;SDS011;6652;48.802;9.190;2023-05-28T08:42:27;12.38;;;5.35;;
13173;SDS011;6652;48.802;9.190;2023-05-28T08:44:54;12.20;;;4.45;;
13173;SDS011;6652;48.802;9.190;2023-05-28T08:47:24;7.28;;;4.22;;
13173;SDS011;6652;48.802;9.190;2023-05-28T08:49:53;13.10;;;5.00;;
13173;SDS011;6652;48.802;9.190;2023-05-28T08:52:20;12.50;;;4.60;;
13173;SDS011;6652;48.802;9.190;2023-05-28T08:54:48;13.35;;;5.10;;
13173;SDS011;6652;48.802;9.190;2023-05-28T08:57:15;14.30;;;5.10;;
13173;SDS011;6652;48.802;9.190;2023-05-28T08:59:45;12.27;;;5.22;;
13173;SDS011;6652;48.802;9.190;2023-05-28T09:02:13;9.65;;;4.60;;
13173;SDS011;6652;48.802;9.190;2023-05-28T09:04:40;13.60;;;5.45;;
13173;SDS011;6652;48.802;9.190;2023-05-28T09:07:11;12.23;;;4.93;;
13173;SDS011;6652;48.802;9.190;2023-05-28T09:09:38;10.57;;;4.75;;
13173;SDS011;6652;48.802;9.190;2023-05-28T09:12:09;12.65;;;4.78;;
13173;SDS011;6652;48.802;9.190;2023-05-28T09:14:37;14.88;;;4.63;;
13173;SDS011;6652;48.802;9.190;2023-05-28T09:17:07;12.60;;;5.28;;
13173;SDS011;6652;48.802;9.190;2023-05-28T09:19:34;12.43;;;4.57;;
13173;SDS011;6652;48.802;9.190;2023-05-28T09:22:02;13.30;;;4.85;;
13173;SDS011;6652;48.802;9.190;2023-05-28T09:24:29;16.25;;;4.85;;
13173;SDS011;6652;48.802;9.190;2023-05-28T09:26:57;15.00;;;4.72;;
13173;SDS011;6652;48.802;9.190;2023-05-28T09:29:26;11.75;;;4.97;;
13173;SDS011;6652;48.802;9.190;2023-05-28T09:31:56;11.60;;;4.82;;
13173;SDS011;6652;48.802;9.190;2023-05-28T09:34:26;13.75;;;5.10;;
13173;SDS011;6652;48.802;9.190;2023-05-28T09:36:58;12.98;;;4.53;;
13173;SDS011;6652;48.802;9.190;2023-05-28T09:39:26;12.65;;;4.85;;
13173;SDS011;6652;48.802;9.190;2023-05-28T09:41:59;14.18;;;5.43;;
13173;SDS011;6652;48.802;9.190;2023-05-28T09:44:31;15.05;;;5.10;;
13173;SDS011;6652;48.802;9.190;2023-05-28T09:46:58;13.65;;;4.70;;
13173;SDS011;6652;48.802;9.190;2023-05-28T09:49:27;11.10;;;4.70;;
13173;SDS011;6652;48.802;9.190;2023-05-28T09:51:56;12.13;;;4.43;;
13173;SDS011;6652;48.802;9.190;2023-05-28T09:54:25;9.05;;;4.30;;
13173;SDS011;6652;48.802;9.190;2023-05-28T09:56:54;13.43;;;4.93;;
13173;SDS011;6652;48.802;9.190;2023-05-28T09:59:24;11.50;;;5.13;;
13173;SDS011;6652;48.802;9.190;2023-05-28T10:01:53;11.00;;;4.30;;
13173;SDS011;6652;48.802;9.190;2023-05-28T10:04:32;15.73;;;5.40;;
13173;SDS011;6652;48.802;9.190;2023-05-28T10:07:03;13.75;;;4.63;;
13173;SDS011;6652;48.802;9.190;2023-05-28T10:09:32;14.40;;;5.07;;
13173;SDS011;6652;48.802;9.190;2023-05-28T10:12:02;12.18;;;4.57;;
13173;SDS011;6652;48.802;9.190;2023-05-28T10:14:34;10.68;;;4.97;;
13173;SDS011;6652;48.802;9.190;2023-05-28T10:17:03;12.82;;;4.55;;
13173;SDS011;6652;48.802;9.190;2023-05-28T10:19:30;12.38;;;4.45;;
13173;SDS011;6652;48.802;9.190;2023-05-28T10:21:58;12.38;;;4.70;;
13173;SDS011;6652;48.802;9.190;2023-05-28T10:24:25;12.63;;;4.75;;
13173;SDS011;6652;48.802;9.190;2023-05-28T10:26:52;16.23;;;5.20;;
13173;SDS011;6652;48.802;9.190;2023-05-28T10:29:19;12.25;;;4.82;;
13173;SDS011;6652;48.802;9.190;2023-05-28T10:31:56;15.55;;;4.80;;
13173;SDS011;6652;48.802;9.190;2023-05-28T10:34:28;10.77;;;4.43;;
13173;SDS011;6652;48.802;9.190;2023-05-28T10:36:57;10.35;;;4.40;;
13173;SDS011;6652;48.802;9.190;2023-05-28T10:39:36;10.50;;;4.75;;
13173;SDS011;6652;48.802;9.190;2023-05-28T10:42:04;14.30;;;4.85;;
13173;SDS011;6652;48.802;9.190;2023-05-28T10:47:17;16.25;;;4.90;;
13173;SDS011;6652;48.802;9.190;2023-05-28T10:49:57;14.98;;;4.82;;
13173;SDS011;6652;48.802;9.190;2023-05-28T10:52:26;9.63;;;4.57;;
13173;SDS011;6652;48.802;9.190;2023-05-28T10:54:53;10.63;;;4.65;;
13173;SDS011;6652;48.802;9.190;2023-05-28T10:57:20;10.13;;;4.45;;
13173;SDS011;6652;48.802;9.190;2023-05-28T10:59:48;13.57;;;5.18;;
13173;SDS011;6652;48.802;9.190;2023-05-28T11:02:17;11.15;;;4.93;;
13173;SDS011;6652;48.802;9.190;2023-05-28T11:04:45;14.35;;;5.05;;
13173;SDS011;6652;48.802;9.190;2023-05-28T11:07:15;13.52;;;4.50;;
13173;SDS011;6652;48.802;9.190;2023-05-28T11:09:46;11.77;;;4.50;;
13173;SDS011;6652;48.802;9.190;2023-05-28T11:12:14;12.30;;;4.72;;
13173;SDS011;6652;48.802;9.190;2023-05-28T11:14:41;13.80;;;4.90;;
13173;SDS011;6652;48.802;9.190;2023-05-28T11:17:09;8.30;;;4.75;;
13173;SDS011;6652;48.802;9.190;2023-05-28T11:19:40;15.13;;;4.93;;
13173;SDS011;6652;48.802;9.190;2023-05-28T11:22:07;12.70;;;4.53;;
13173;SDS011;6652;48.802;9.190;2023-05-28T11:27:30;15.95;;;5.57;;
13173;SDS011;6652;48.802;9.190;2023-05-28T11:30:00;12.65;;;5.25;;
13173;SDS011;6652;48.802;9.190;2023-05-28T11:32:28;11.80;;;4.20;;
13173;SDS011;6652;48.802;9.190;2023-05-28T11:34:58;15.15;;;4.88;;
13173;SDS011;6652;48.802;9.190;2023-05-28T11:37:26;12.50;;;4.38;;
13173;SDS011;6652;48.802;9.190;2023-05-28T11:39:54;10.55;;;4.70;;
13173;SDS011;6652;48.802;9.190;2023-05-28T11:42:22;14.55;;;4.82;;
13173;SDS011;6652;48.802;9.190;2023-05-28T11:44:51;8.52;;;4.20;;
13173;SDS011;6652;48.802;9.190;2023-05-28T11:47:18;9.73;;;4.30;;
13173;SDS011;6652;48.802;9.190;2023-05-28T11:49:46;12.02;;;4.60;;
13173;SDS011;6652;48.802;9.190;2023-05-28T11:52:14;13.80;;;4.07;;
13173;SDS011;6652;48.802;9.190;2023-05-28T11:54:43;9.13;;;3.97;;
13173;SDS011;6652;48.802;9.190;2023-05-28T11:57:15;14.05;;;5.32;;
13173;SDS011;6652;48.802;9.190;2023-05-28T11:59:54;11.27;;;4.90;;
13173;SDS011;6652;48.802;9.190;2023-05-28T12:02:24;12.95;;;4.45;;
13173;SDS011;6652;48.802;9.190;2023-05-28T12:04:58;9.30;;;4.40;;
13173;SDS011;6652;48.802;9.190;2023-05-28T12:07:28;12.35;;;4.85;;
13173;SDS011;6652;48.802;9.190;2023-05-28T12:10:05;13.88;;;4.57;;
13173;SDS011;6652;48.802;9.190;2023-05-28T12:12:33;8.75;;;4.47;;
13173;SDS011;6652;48.802;9.190;2023-05-28T12:15:03;12.35;;;4.38;;
13173;SDS011;6652;48.802;9.190;2023-05-28T12:17:34;10.55;;;4.10;;
13173;SDS011;6652;48.802;9.190;2023-05-28T12:20:05;10.45;;;4.32;;
13173;SDS011;6652;48.802;9.190;2023-05-28T12:22:33;8.68;;;4.38;;
13173;SDS011;6652;48.802;9.190;2023-05-28T12:25:00;13.98;;;4.45;;
13173;SDS011;6652;48.802;9.190;2023-05-28T12:27:27;10.18;;;4.20;;
13173;SDS011;6652;48.802;9.190;2023-05-28T12:29:54;10.93;;;4.32;;
13173;SDS011;6652;48.802;9.190;2023-05-28T12:32:23;11.15;;;4.65;;
13173;SDS011;6652;48.802;9.190;2023-05-28T12:34:51;12.55;;;4.80;;
13173;SDS011;6652;48.802;9.190;2023-05-28T12:37:21;9.90;;;4.22;;
13173;SDS011;6652;48.802;9.190;2023-05-28T12:39:48;12.18;;;4.10;;
13173;SDS011;6652;48.802;9.190;2023-05-28T12:42:15;16.77;;;4.68;;
13173;SDS011;6652;48.802;9.190;2023-05-28T12:44:42;12.55;;;4.63;;
13173;SDS011;6652;48.802;9.190;2023-05-28T12:47:09;10.63;;;4.22;;
13173;SDS011;6652;48.802;9.190;2023-05-28T12:49:37;8.80;;;4.43;;
13173;SDS011;6652;48.802;9.190;2023-05-28T12:52:04;11.60;;;5.38;;
13173;SDS011;6652;48.802;9.190;2023-05-28T12:54:32;9.20;;;4.53;;
13173;SDS011;6652;48.802;9.190;2023-05-28T12:56:59;15.85;;;5.15;;
13173;SDS011;6652;48.802;9.190;2023-05-28T12:59:26;12.23;;;4.50;;
13173;SDS011;6652;48.802;9.190;2023-05-28T13:01:55;11.77;;;4.75;;
13173;SDS011;6652;48.802;9.190;2023-05-28T13:04:22;13.98;;;4.90;;
13173;SDS011;6652;48.802;9.190;2023-05-28T13:06:54;12.32;;;4.97;;
13173;SDS011;6652;48.802;9.190;2023-05-28T13:09:20;8.20;;;4.32;;
13173;SDS011;6652;48.802;9.190;2023-05-28T13:11:47;10.65;;;4.28;;
13173;SDS011;6652;48.802;9.190;2023-05-28T13:14:14;12.70;;;4.63;;
13173;SDS011;6652;48.802;9.190;2023-05-28T13:16:41;21.40;;;5.35;;
13173;SDS011;6652;48.802;9.190;2023-05-28T13:19:08;10.90;;;4.60;;
13173;SDS011;6652;48.802;9.190;2023-05-28T13:21:35;8.98;;;4.50;;
13173;SDS011;6652;48.802;9.190;2023-05-28T13:24:04;12.15;;;4.45;;
13173;SDS011;6652;48.802;9.190;2023-05-28T13:26:32;7.88;;;4.13;;
13173;SDS011;6652;48.802;9.190;2023-05-28T13:29:00;11.68;;;4.47;;
13173;SDS011;6652;48.802;9.190;2023-05-28T13:31:28;8.30;;;4.40;;
13173;SDS011;6652;48.802;9.190;2023-05-28T13:33:55;12.10;;;5.03;;
13173;SDS011;6652;48.802;9.190;2023-05-28T13:36:22;13.57;;;5.13;;
13173;SDS011;6652;48.802;9.190;2023-05-28T13:38:50;15.73;;;5.78;;
13173;SDS011;6652;48.802;9.190;2023-05-28T13:41:19;8.20;;;4.25;;
13173;SDS011;6652;48.802;9.190;2023-05-28T13:43:47;12.60;;;4.78;;
13173;SDS011;6652;48.802;9.190;2023-05-28T13:46:18;11.45;;;4.80;;
13173;SDS011;6652;48.802;9.190;2023-05-28T13:48:45;10.35;;;4.75;;
13173;SDS011;6652;48.802;9.190;2023-05-28T13:51:11;8.90;;;4.45;;
13173;SDS011;6652;48.802;9.190;2023-05-28T13:53:39;14.02;;;4.65;;
13173;SDS011;6652;48.802;9.190;2023-05-28T13:56:07;11.98;;;4.50;;
13173;SDS011;6652;48.802;9.190;2023-05-28T13:58:35;11.85;;;4.38;;
13173;SDS011;6652;48.802;9.190;2023-05-28T14:01:02;13.07;;;4.47;;
13173;SDS011;6652;48.802;9.190;2023-05-28T14:03:28;10.07;;;4.68;;
13173;SDS011;6652;48.802;9.190;2023-05-28T14:05:55;10.68;;;4.55;;
13173;SDS011;6652;48.802;9.190;2023-05-28T14:08:22;11.30;;;4.45;;
13173;SDS011;6652;48.802;9.190;2023-05-28T14:10:49;11.50;;;4.18;;
13173;SDS011;6652;48.802;9.190;2023-05-28T14:13:16;15.20;;;4.53;;
13173;SDS011;6652;48.802;9.190;2023-05-28T14:15:44;9.40;;;5.03;;
13173;SDS011;6652;48.802;9.190;2023-05-28T14:18:11;9.52;;;4.78;;
13173;SDS011;6652;48.802;9.190;2023-05-28T14:20:38;10.40;;;4.40;;
13173;SDS011;6652;48.802;9.190;2023-05-28T14:23:05;11.40;;;4.80;;
13173;SDS011;6652;48.802;9.190;2023-05-28T14:25:31;12.98;;;4.93;;
13173;SDS011;6652;48.802;9.190;2023-05-28T14:27:58;11.55;;;5.40;;
13173;SDS011;6652;48.802;9.190;2023-05-28T14:30:25;8.55;;;4.43;;
13173;SDS011;6652;48.802;9.190;2023-05-28T14:32:53;13.38;;;4.72;;
13173;SDS011;6652;48.802;9.190;2023-05-28T14:35:20;14.60;;;4.90;;
13173;SDS011;6652;48.802;9.190;2023-05-28T14:37:47;15.13;;;4.63;;
13173;SDS011;6652;48.802;9.190;2023-05-28T14:40:15;10.80;;;5.03;;
13173;SDS011;6652;48.802;9.190;2023-05-28T14:42:42;6.35;;;4.28;;
13173;SDS011;6652;48.802;9.190;2023-05-28T14:45:09;11.73;;;4.68;;
13173;SDS011;6652;48.802;9.190;2023-05-28T14:47:36;15.80;;;5.82;;
13173;SDS011;6652;48.802;9.190;2023-05-28T14:50:05;10.55;;;4.43;;
13173;SDS011;6652;48.802;9.190;2023-05-28T14:52:32;13.00;;;4.60;;
13173;SDS011;6652;48.802;9.190;2023-05-28T14:54:59;15.82;;;4.60;;
13173;SDS011;6652;48.802;9.190;2023-05-28T14:57:27;9.40;;;4.88;;
13173;SDS011;6652;48.802;9.190;2023-05-28T14:59:58;10.75;;;4.90;;
13173;SDS011;6652;48.802;9.190;2023-05-28T15:02:27;9.27;;;4.20;;
13173;SDS011;6652;48.802;9.190;2023-05-28T15:04:54;11.82;;;4.50;;